Time;durP1;ratioP1;P1;durP2;ratioP2;P2;SDS_P1;SDS_P2;PMS_P1;PMS_P2;Temp;Humidity;BMP_temperature;BMP_pressure;BME280_temperature;BME280_humidity;BME280_pressure;Samples;Min_cycle;Max_cycle;Signal;HPM_P1;HPM_P2
2022/02/01 00:03:51;;;;;;;7.35;4.72;;;;;;;3.09;38.50;92696.94;5017842;28;20140;-79
2022/02/01 00:06:24;;;;;;;6.88;3.75;;;;;;;3.18;38.90;92663.69;5018951;28;20558;-78
2022/02/01 00:09:01;;;;;;;10.05;3.85;;;;;;;3.25;38.83;92670.06;5016976;28;20596;-78
2022/02/01 00:14:04;;;;;;;13.50;7.88;;;;;;;3.33;38.86;92664.09;5018465;28;20041;-79
2022/02/01 00:35:57;;;;;;;25.08;11.18;;;;;;;3.73;39.32;92667.69;5020708;28;20043;-78
2022/02/01 00:38:06;;;;;;;22.45;9.85;;;;;;;3.74;39.17;92652.69;5019124;28;20711;-79
2022/02/01 00:40:33;;;;;;;22.30;10.38;;;;;;;3.82;38.88;92665.91;5018054;28;20091;-79
2022/02/01 00:42:59;;;;;;;19.23;7.60;;;;;;;3.62;38.98;92631.44;5020571;28;20111;-78
2022/02/01 00:45:24;;;;;;;15.80;5.95;;;;;;;3.65;38.85;92620.31;5031667;28;20037;-79
2022/02/01 00:47:49;;;;;;;8.82;4.88;;;;;;;3.70;38.56;92622.81;5030524;28;20512;-79
2022/02/01 00:50:16;;;;;;;8.27;3.20;;;;;;;3.83;38.73;92638.53;5023365;28;20048;-79
2022/02/01 00:52:44;;;;;;;8.00;4.40;;;;;;;3.86;39.02;92616.13;5021838;28;20052;-78
2022/02/01 00:55:10;;;;;;;6.07;3.25;;;;;;;4.01;38.47;92628.94;5025216;28;20021;-79
2022/02/01 00:57:36;;;;;;;6.20;3.55;;;;;;;3.93;38.28;92605.97;5024206;28;20104;-79
2022/02/01 01:00:03;;;;;;;10.77;5.50;;;;;;;3.94;38.53;92623.28;5027958;28;20078;-78
2022/02/01 01:02:28;;;;;;;7.00;3.50;;;;;;;3.65;39.03;92594.03;5027796;28;20048;-79
2022/02/01 01:04:54;;;;;;;8.50;4.40;;;;;;;3.71;38.84;92595.47;5015366;28;20045;-78
2022/02/01 01:07:19;;;;;;;9.20;3.80;;;;;;;3.82;38.47;92596.75;5021944;28;20021;-79
2022/02/01 01:09:45;;;;;;;7.72;2.42;;;;;;;3.96;38.36;92610.63;5028288;28;20108;-78
2022/02/01 01:12:10;;;;;;;6.35;2.65;;;;;;;3.82;37.90;92586.22;5022739;28;20283;-79
2022/02/01 01:44:33;;;;;;;8.30;2.05;;;;;;;4.26;37.37;92578.25;5027251;28;20409;-79
2022/02/01 01:55:13;;;;;;;5.25;1.65;;;;;;;4.31;36.97;92555.59;5020530;28;20032;-76
2022/02/01 01:57:39;;;;;;;4.82;1.88;;;;;;;4.33;36.63;92556.03;5029941;28;20033;-76
2022/02/01 02:00:08;;;;;;;4.35;1.95;;;;;;;3.85;36.97;92556.72;5016210;28;20029;-77
2022/02/01 02:02:34;;;;;;;3.45;2.45;;;;;;;3.17;38.12;92518.41;5021789;28;20033;-77
2022/02/01 02:04:59;;;;;;;10.02;5.13;;;;;;;2.08;41.08;92553.47;5020456;28;21106;-76
2022/02/01 02:07:25;;;;;;;7.38;5.00;;;;;;;2.82;40.63;92551.47;5021107;28;20029;-77
2022/02/01 02:09:50;;;;;;;6.85;4.28;;;;;;;3.33;40.38;92566.13;5023768;28;20059;-77
2022/02/01 02:12:33;;;;;;;9.57;4.03;;;;;;;3.49;39.97;92566.53;5025854;28;20116;-76
2022/02/01 02:14:59;;;;;;;6.35;4.03;;;;;;;3.58;39.75;92562.09;5018031;28;20044;-77
2022/02/01 02:17:24;;;;;;;10.10;4.90;;;;;;;3.64;39.35;92560.91;5029436;28;20406;-77
2022/02/01 02:19:49;;;;;;;10.13;4.82;;;;;;;2.98;39.99;92557.19;5025181;28;20573;-76
2022/02/01 02:22:15;;;;;;;12.88;5.57;;;;;;;3.21;40.12;92569.28;5018745;28;20025;-77
2022/02/01 02:24:43;;;;;;;15.70;7.55;;;;;;;3.07;40.68;92565.13;5020090;28;20029;-76
2022/02/01 02:27:09;;;;;;;14.10;6.32;;;;;;;3.37;40.67;92561.81;5015733;28;20406;-77
2022/02/01 02:29:35;;;;;;;10.60;5.72;;;;;;;3.59;39.90;92563.66;5020156;28;20047;-77
2022/02/01 02:32:03;;;;;;;20.92;6.50;;;;;;;3.31;40.38;92550.66;5024074;28;20450;-76
2022/02/01 02:34:29;;;;;;;11.55;6.60;;;;;;;3.32;40.42;92533.03;5029529;28;20036;-77
2022/02/01 02:37:04;;;;;;;12.43;5.00;;;;;;;3.28;40.58;92547.84;5020766;28;20083;-76
2022/02/01 02:39:36;;;;;;;;;;;;;;;2.98;41.67;92559.81;5020329;28;20029;-77
2022/02/01 02:42:25;;;;;;;10.55;5.43;;;;;;;2.69;41.45;92559.38;5020709;28;20662;-76
2022/02/01 02:45:09;;;;;;;13.65;6.43;;;;;;;2.62;41.45;92519.63;5029273;28;20410;-76
2022/02/01 02:47:35;;;;;;;10.90;5.47;;;;;;;2.86;41.30;92546.41;5028312;28;20106;-76
2022/02/01 02:50:01;;;;;;;12.45;7.63;;;;;;;2.64;41.24;92530.63;5029392;28;20397;-77
2022/02/01 02:52:27;;;;;;;12.65;6.75;;;;;;;3.08;40.89;92559.59;5019886;28;20033;-76
2022/02/01 02:54:54;;;;;;;15.88;7.05;;;;;;;2.97;40.90;92508.34;5031692;28;20067;-79
2022/02/01 02:57:20;;;;;;;13.93;7.20;;;;;;;3.05;41.31;92536.53;5020173;28;20051;-76
2022/02/01 02:59:47;;;;;;;14.68;8.85;;;;;;;3.24;41.34;92544.25;5023164;28;20038;-77
2022/02/01 03:02:13;;;;;;;18.17;8.10;;;;;;;3.48;40.71;92549.22;5020884;28;20071;-77
2022/02/01 03:04:38;;;;;;;15.73;8.88;;;;;;;3.45;40.65;92549.81;5025213;28;20037;-76
2022/02/01 03:07:06;;;;;;;17.20;8.75;;;;;;;3.45;40.89;92539.28;5017829;28;20025;-76
2022/02/01 03:09:33;;;;;;;17.45;7.45;;;;;;;3.31;41.04;92521.75;5021418;28;20081;-76
2022/02/01 03:12:01;;;;;;;19.85;10.10;;;;;;;3.44;41.24;92549.03;5022968;28;20041;-76
2022/02/01 03:17:21;;;;;;;24.42;8.65;;;;;;;3.44;41.13;92509.59;5026805;28;20035;-76
2022/02/01 03:19:50;;;;;;;21.15;8.52;;;;;;;3.37;40.71;92507.41;5025546;28;20056;-77
2022/02/01 03:22:21;;;;;;;21.83;9.57;;;;;;;3.28;40.73;92516.31;5024629;28;20054;-76
2022/02/01 03:24:48;;;;;;;30.77;11.60;;;;;;;3.03;40.90;92519.53;5030950;28;20021;-76
2022/02/01 03:27:14;;;;;;;19.30;10.00;;;;;;;3.03;41.27;92543.94;5028483;28;20037;-77
2022/02/01 03:29:43;;;;;;;17.10;8.27;;;;;;;2.76;41.74;92515.13;5023482;28;20082;-76
2022/02/01 03:32:09;;;;;;;16.08;9.20;;;;;;;2.98;41.74;92528.28;5026927;28;20067;-77
2022/02/01 03:34:35;;;;;;;21.15;9.00;;;;;;;3.09;41.81;92520.94;5010024;28;20091;-77
2022/02/01 03:37:01;;;;;;;22.00;9.02;;;;;;;3.09;41.55;92519.09;5023476;28;20116;-78
2022/02/01 03:39:27;;;;;;;26.52;10.63;;;;;;;3.16;41.79;92516.06;5027007;28;20043;-77
2022/02/01 03:41:52;;;;;;;20.23;10.60;;;;;;;3.06;42.08;92490.81;5016854;28;20039;-77
2022/02/01 03:44:20;;;;;;;19.15;9.10;;;;;;;3.24;42.09;92510.88;5023388;28;20044;-77
2022/02/01 03:46:59;;;;;;;20.95;9.88;;;;;;;2.81;42.23;92444.91;5023235;28;20110;-78
2022/02/01 03:49:25;;;;;;;20.45;9.63;;;;;;;3.38;41.81;92510.78;5009760;28;20037;-77
2022/02/01 03:51:50;;;;;;;19.48;9.27;;;;;;;3.25;41.94;92480.91;5023456;28;20025;-77
2022/02/01 03:54:16;;;;;;;20.85;8.85;;;;;;;3.56;41.47;92494.06;5020064;28;20163;-76
2022/02/01 03:56:41;;;;;;;19.85;9.32;;;;;;;3.54;41.16;92495.44;5023193;28;20528;-77
2022/02/01 03:59:07;;;;;;;18.45;8.40;;;;;;;3.50;40.80;92468.22;5021250;28;20125;-77
2022/02/01 04:01:32;;;;;;;18.80;9.45;;;;;;;3.37;41.13;92456.72;5022157;28;20836;-77
2022/02/01 04:03:57;;;;;;;24.63;9.63;;;;;;;3.42;41.69;92497.84;5009971;28;20321;-77
2022/02/01 04:06:23;;;;;;;15.00;9.02;;;;;;;3.32;41.64;92475.22;5025231;28;20144;-77
2022/02/01 04:08:48;;;;;;;18.05;10.55;;;;;;;3.32;41.83;92467.34;5018395;28;20386;-77
2022/02/01 04:11:13;;;;;;;27.50;11.80;;;;;;;3.33;41.54;92456.50;5019423;28;20033;-77
2022/02/01 04:13:39;;;;;;;20.13;10.48;;;;;;;3.33;42.23;92485.41;5019429;28;20044;-77
2022/02/01 04:16:05;;;;;;;22.40;11.23;;;;;;;3.46;42.06;92490.91;5019948;28;20035;-77
2022/02/01 04:18:31;;;;;;;25.73;13.27;;;;;;;3.50;41.72;92486.59;5020762;28;20029;-77
2022/02/01 04:20:56;;;;;;;34.92;14.18;;;;;;;3.59;41.82;92487.44;5025126;28;20049;-77
2022/02/01 04:23:22;;;;;;;38.00;19.10;;;;;;;3.40;41.19;92459.50;5017879;28;21112;-77
2022/02/01 04:25:47;;;;;;;38.17;17.63;;;;;;;3.13;41.79;92446.53;5025581;28;20045;-77
2022/02/01 04:28:13;;;;;;;42.25;17.30;;;;;;;3.14;42.34;92466.44;5022756;28;20555;-77
2022/02/01 04:30:38;;;;;;;26.80;13.50;;;;;;;3.00;42.37;92446.56;5008567;28;20532;-77
2022/02/01 04:33:07;;;;;;;29.60;14.57;;;;;;;3.18;42.13;92475.31;5024250;28;20029;-77
2022/02/01 04:35:34;;;;;;;23.70;13.18;;;;;;;3.18;42.43;92477.94;5025996;28;20129;-77
2022/02/01 04:37:59;;;;;;;32.38;13.68;;;;;;;3.19;42.33;92465.53;5021094;28;20032;-77
2022/02/01 04:40:27;;;;;;;30.50;13.73;;;;;;;3.42;42.28;92474.19;5015989;28;20075;-77
2022/02/01 04:42:53;;;;;;;25.00;11.90;;;;;;;3.11;42.74;92458.38;5019089;28;20268;-77
2022/02/01 04:45:21;;;;;;;27.67;13.15;;;;;;;3.37;42.58;92477.72;5021625;28;20724;-77
2022/02/01 04:47:49;;;;;;;34.45;15.27;;;;;;;3.11;42.48;92468.91;5019961;28;20045;-77
2022/02/01 04:50:23;;;;;;;24.98;12.50;;;;;;;3.25;42.85;92491.41;5016961;28;20080;-77
2022/02/01 04:52:53;;;;;;;24.90;13.15;;;;;;;3.28;42.81;92493.41;5023632;28;20132;-77
2022/02/01 04:55:24;;;;;;;23.80;12.82;;;;;;;3.20;42.77;92493.38;5020610;28;20551;-77
2022/02/01 04:57:54;;;;;;;26.23;12.00;;;;;;;3.26;42.89;92498.22;5021503;28;20027;-77
2022/02/01 05:00:26;;;;;;;29.45;13.10;;;;;;;3.28;42.84;92511.81;5025038;28;20052;-77
2022/02/01 05:02:53;;;;;;;31.85;14.27;;;;;;;3.21;43.01;92506.22;5023322;28;20537;-77
2022/02/01 05:05:23;;;;;;;24.50;13.35;;;;;;;2.82;42.77;92440.44;5011483;28;20099;-77
2022/02/01 05:07:48;;;;;;;26.52;13.68;;;;;;;3.19;42.95;92503.09;5026172;28;20041;-77
2022/02/01 05:10:15;;;;;;;26.60;12.57;;;;;;;2.45;43.42;92494.75;5016292;28;20037;-77
2022/02/01 05:12:41;;;;;;;24.02;13.55;;;;;;;1.61;44.95;92481.16;5027173;28;20040;-77
2022/02/01 05:15:07;;;;;;;23.65;12.73;;;;;;;1.78;44.93;92500.78;5021110;28;21162;-77
2022/02/01 05:17:39;;;;;;;25.77;10.63;;;;;;;2.20;44.21;92466.44;5031044;28;20036;-77
2022/02/01 05:20:20;;;;;;;18.15;10.07;;;;;;;2.61;43.59;92497.06;5025431;28;20375;-77
2022/02/01 05:22:46;;;;;;;17.40;9.70;;;;;;;2.60;43.20;92516.53;5022222;28;20120;-77
2022/02/01 05:25:12;;;;;;;18.75;9.70;;;;;;;2.27;43.17;92518.50;5026738;28;20894;-77
2022/02/01 05:27:39;;;;;;;25.75;11.38;;;;;;;2.37;43.02;92505.16;5020938;28;20131;-77
2022/02/01 05:30:08;;;;;;;19.95;11.57;;;;;;;2.70;42.62;92495.28;5018654;28;20037;-77
2022/02/01 05:32:33;;;;;;;18.00;10.20;;;;;;;3.06;42.01;92522.31;5024977;28;20065;-76
2022/02/01 05:34:59;;;;;;;28.05;12.38;;;;;;;3.03;41.84;92535.28;5024341;28;20776;-77
2022/02/01 05:37:24;;;;;;;35.10;19.02;;;;;;;3.09;41.91;92534.84;5022808;28;20025;-76
2022/02/01 05:39:50;;;;;;;23.92;15.52;;;;;;;3.04;41.81;92510.56;5021348;28;20721;-77
2022/02/01 05:42:20;;;;;;;28.75;15.70;;;;;;;2.95;42.25;92503.38;5027260;28;20513;-77
2022/02/01 05:44:45;;;;;;;24.52;13.45;;;;;;;2.90;42.57;92503.50;5017859;28;20049;-77
2022/02/01 05:47:13;;;;;;;25.20;14.10;;;;;;;3.11;42.56;92537.97;5019401;28;20117;-77
2022/02/01 05:49:40;;;;;;;20.55;12.70;;;;;;;3.12;42.55;92523.00;5019061;28;20045;-77
2022/02/01 05:52:06;;;;;;;27.83;12.15;;;;;;;3.31;41.99;92527.00;5015679;28;20025;-78
2022/02/01 05:54:31;;;;;;;28.88;12.75;;;;;;;3.23;42.13;92546.09;5029320;28;20103;-77
2022/02/01 05:56:58;;;;;;;25.27;13.18;;;;;;;3.20;42.06;92559.84;5025445;28;20141;-77
2022/02/01 05:59:23;;;;;;;27.35;12.55;;;;;;;3.15;42.29;92565.19;5021533;28;20603;-77
2022/02/01 06:01:49;;;;;;;42.20;19.73;;;;;;;3.18;42.06;92577.75;5022185;28;20093;-77
2022/02/01 06:04:14;;;;;;;36.20;16.20;;;;;;;2.92;42.31;92545.22;5020006;28;20534;-77
2022/02/01 06:06:39;;;;;;;43.97;17.98;;;;;;;2.69;42.46;92525.25;5024055;28;20120;-77
2022/02/01 06:09:05;;;;;;;43.13;22.02;;;;;;;2.80;42.70;92569.38;5024312;28;20045;-76
2022/02/01 06:11:32;;;;;;;34.28;18.55;;;;;;;2.85;42.87;92581.59;5017855;28;20534;-77
2022/02/01 06:13:58;;;;;;;36.15;17.23;;;;;;;2.80;43.22;92594.84;5022668;28;20058;-77
2022/02/01 06:16:24;;;;;;;27.98;13.88;;;;;;;2.85;42.79;92597.34;5023444;28;20025;-77
2022/02/01 06:18:50;;;;;;;22.27;13.32;;;;;;;2.86;42.27;92598.91;5024926;28;20047;-77
2022/02/01 06:21:15;;;;;;;38.05;17.48;;;;;;;2.80;42.14;92607.97;5020253;28;20051;-76
2022/02/01 06:23:40;;;;;;;33.55;16.45;;;;;;;2.75;42.46;92593.09;5029356;28;20124;-76
2022/02/01 06:26:06;;;;;;;30.45;12.65;;;;;;;2.80;43.26;92623.72;5022495;28;20152;-77
2022/02/01 06:28:31;;;;;;;20.85;11.38;;;;;;;2.79;43.54;92622.19;5030787;28;20041;-77
2022/02/01 06:30:57;;;;;;;26.13;13.45;;;;;;;2.91;43.64;92638.22;5016076;28;20020;-77
2022/02/01 06:33:23;;;;;;;29.58;12.43;;;;;;;3.04;43.32;92641.91;5011827;28;20038;-76
2022/02/01 06:35:49;;;;;;;43.80;16.42;;;;;;;2.98;42.89;92628.09;5027577;28;20072;-77
2022/02/01 06:38:15;;;;;;;22.15;11.57;;;;;;;3.28;41.46;92630.06;5030844;28;20036;-76
2022/02/01 06:40:43;;;;;;;21.70;9.95;;;;;;;3.39;41.38;92643.75;5028922;28;20037;-76
2022/02/01 06:43:08;;;;;;;17.33;9.95;;;;;;;3.34;40.93;92628.88;5040768;28;20040;-79
2022/02/01 06:45:35;;;;;;;18.67;10.35;;;;;;;3.32;41.12;92628.41;5021532;28;21214;-76
2022/02/01 06:48:01;;;;;;;27.10;13.32;;;;;;;3.25;40.97;92633.28;5021219;28;20032;-77
2022/02/01 06:50:26;;;;;;;23.77;13.57;;;;;;;3.37;41.40;92636.19;5015633;28;20115;-76
2022/02/01 06:52:57;;;;;;;25.25;13.55;;;;;;;3.46;41.37;92638.09;5029201;28;20052;-76
2022/02/01 06:55:34;;;;;;;23.77;11.98;;;;;;;3.55;40.39;92625.81;5015228;28;20362;-77
2022/02/01 06:58:03;;;;;;;23.00;9.02;;;;;;;3.76;39.46;92658.44;5025961;28;20380;-77
2022/02/01 07:00:30;;;;;;;14.77;6.43;;;;;;;2.21;41.06;92646.34;5017035;28;20056;-76
2022/02/01 07:02:56;;;;;;;10.73;4.60;;;;;;;2.17;40.69;92666.34;5016608;28;20053;-76
2022/02/01 07:05:24;;;;;;;23.20;11.55;;;;;;;2.42;42.21;92667.75;5020088;28;20042;-77
2022/02/01 07:07:50;;;;;;;37.28;18.65;;;;;;;2.70;41.96;92632.56;5013739;28;20041;-77
2022/02/01 07:10:17;;;;;;;23.23;12.05;;;;;;;3.25;41.24;92670.06;5021995;28;20414;-77
2022/02/01 07:12:42;;;;;;;12.82;7.88;;;;;;;3.50;40.37;92670.59;5024363;28;20152;-76
2022/02/01 07:15:08;;;;;;;15.52;6.30;;;;;;;3.48;39.42;92655.13;5020435;28;20036;-77
2022/02/01 07:17:43;;;;;;;11.63;5.15;;;;;;;3.78;39.42;92677.31;5023146;28;20044;-76
2022/02/01 07:20:09;;;;;;;9.60;4.38;;;;;;;3.91;39.25;92687.03;5027283;28;20049;-77
2022/02/01 07:22:36;;;;;;;8.15;3.53;;;;;;;3.23;37.57;92693.22;5017573;28;20407;-76
2022/02/01 07:25:12;;;;;;;16.20;8.05;;;;;;;2.92;38.84;92663.41;5023848;28;20485;-76
2022/02/01 07:27:40;;;;;;;32.08;16.65;;;;;;;3.15;40.38;92696.56;5023626;28;20048;-77
2022/02/01 07:30:11;;;;;;;43.35;17.23;;;;;;;3.56;40.16;92693.09;5019393;28;20037;-76
2022/02/01 07:32:37;;;;;;;39.65;17.00;;;;;;;3.41;41.04;92688.94;5016605;28;20045;-77
2022/02/01 07:35:04;;;;;;;32.72;16.40;;;;;;;3.79;40.21;92686.78;5016224;28;20356;-77
2022/02/01 07:37:29;;;;;;;30.55;15.65;;;;;;;3.58;40.63;92683.03;5021562;28;20075;-77
2022/02/01 07:39:55;;;;;;;31.27;15.35;;;;;;;3.70;40.78;92680.66;5024155;28;20025;-77
2022/02/01 07:42:20;;;;;;;50.55;20.35;;;;;;;4.01;40.91;92702.59;5020919;28;20143;-76
2022/02/01 07:44:46;;;;;;;38.50;19.98;;;;;;;3.88;40.94;92666.56;5019208;28;20044;-77
2022/02/01 07:47:18;;;;;;;44.30;22.63;;;;;;;4.27;41.01;92706.16;5020452;28;20045;-77
2022/02/01 07:49:44;;;;;;;38.45;20.83;;;;;;;4.18;41.29;92694.03;5018461;28;20277;-76
2022/02/01 07:52:09;;;;;;;36.97;17.92;;;;;;;4.12;40.55;92676.78;5024146;28;20025;-79
2022/02/01 07:54:35;;;;;;;41.08;18.25;;;;;;;3.06;41.70;92695.69;5009419;28;20072;-76
2022/02/01 07:57:00;;;;;;;35.97;19.30;;;;;;;3.50;41.93;92696.88;5028039;28;20155;-77
2022/02/01 07:59:25;;;;;;;36.70;17.80;;;;;;;3.71;41.31;92719.03;5014307;28;20069;-77
2022/02/01 08:01:51;;;;;;;37.25;18.70;;;;;;;3.24;41.45;92688.75;5029346;28;20044;-77
2022/02/01 08:04:16;;;;;;;35.85;18.08;;;;;;;3.74;41.30;92702.66;5020080;28;20025;-77
2022/02/01 08:06:41;;;;;;;42.60;18.42;;;;;;;3.73;40.96;92691.38;5016682;28;20021;-77
2022/02/01 08:09:16;;;;;;;44.85;21.92;;;;;;;4.07;41.05;92716.38;5024198;28;20040;-77
2022/02/01 08:11:42;;;;;;;32.80;17.88;;;;;;;3.56;40.81;92669.44;5018593;28;20115;-76
2022/02/01 08:16:49;;;;;;;40.83;17.02;;;;;;;4.43;40.79;92703.19;5027450;28;20136;-76
2022/02/01 08:19:27;;;;;;;38.38;19.20;;;;;;;4.31;40.91;92684.53;5027483;28;20033;-76
2022/02/01 08:21:54;;;;;;;37.90;18.25;;;;;;;3.65;41.24;92707.09;5017331;28;20025;-76
2022/02/01 08:24:20;;;;;;;38.15;20.23;;;;;;;3.42;42.04;92692.34;5025197;28;20040;-77
2022/02/01 08:26:45;;;;;;;43.08;22.20;;;;;;;3.02;42.64;92702.59;5021462;28;20390;-79
2022/02/01 08:29:12;;;;;;;42.05;20.60;;;;;;;3.13;43.30;92693.47;5024749;28;20033;-77
2022/02/01 08:31:38;;;;;;;43.15;21.60;;;;;;;3.34;42.66;92689.31;5021154;28;20532;-76
2022/02/01 08:34:03;;;;;;;52.20;22.70;;;;;;;2.91;43.45;92659.22;5025654;28;20022;-78
2022/02/01 08:36:29;;;;;;;48.53;23.30;;;;;;;3.27;43.38;92699.47;5019077;28;20037;-78
2022/02/01 08:38:55;;;;;;;45.42;25.25;;;;;;;3.35;43.26;92701.41;5023509;28;20041;-78
2022/02/01 08:41:20;;;;;;;43.95;23.50;;;;;;;2.88;44.28;92680.81;5025305;28;20067;-78
2022/02/01 08:43:45;;;;;;;54.33;27.23;;;;;;;2.37;45.36;92681.75;5020853;28;20030;-77
2022/02/01 08:46:20;;;;;;;53.40;24.48;;;;;;;2.05;45.61;92631.94;5023422;28;20233;-77
2022/02/01 08:48:45;;;;;;;50.87;25.33;;;;;;;1.99;46.13;92690.78;5025637;28;20021;-78
2022/02/01 08:51:12;;;;;;;50.80;22.27;;;;;;;2.28;46.16;92708.94;5026092;28;20037;-77
2022/02/01 08:53:48;;;;;;;47.67;23.10;;;;;;;2.34;45.55;92689.44;5028335;28;20132;-77
2022/02/01 08:57:21;;;;;;;43.75;23.95;;;;;;;2.74;45.03;92708.94;5024998;28;20404;-77
2022/02/01 08:58:59;;;;;;;58.30;25.83;;;;;;;2.76;44.37;92677.88;5021618;28;20651;-78
2022/02/01 09:01:24;;;;;;;54.25;25.50;;;;;;;2.99;44.19;92681.41;5023188;28;20102;-78
2022/02/01 09:03:50;;;;;;;54.28;27.63;;;;;;;3.01;43.99;92716.81;5024998;28;20076;-78
2022/02/01 09:06:15;;;;;;;51.13;22.67;;;;;;;3.49;43.45;92688.22;5024218;28;20094;-78
2022/02/01 09:08:41;;;;;;;57.13;27.23;;;;;;;3.64;43.04;92705.50;5024398;28;20047;-77
2022/02/01 09:11:08;;;;;;;49.13;25.38;;;;;;;3.23;43.39;92703.72;5017978;28;20037;-78
2022/02/01 09:13:33;;;;;;;50.05;24.85;;;;;;;3.38;42.82;92684.25;5023072;28;20501;-77
2022/02/01 09:15:59;;;;;;;46.20;24.08;;;;;;;3.74;42.58;92676.38;5025896;28;20040;-78
2022/02/01 09:18:24;;;;;;;55.65;27.08;;;;;;;3.96;42.48;92692.19;5019663;28;20083;-78
2022/02/01 09:20:51;;;;;;;51.42;25.50;;;;;;;4.06;42.03;92699.81;5025812;28;20124;-78
2022/02/01 09:23:17;;;;;;;54.30;25.45;;;;;;;3.72;42.16;92675.91;5021679;28;20056;-78
2022/02/01 09:25:42;;;;;;;50.47;24.13;;;;;;;2.88;42.17;92507.50;5026800;28;20037;-77
2022/02/01 09:28:08;;;;;;;42.53;24.75;;;;;;;4.11;41.66;92633.91;5024877;28;20022;-77
2022/02/01 09:30:34;;;;;;;50.15;26.05;;;;;;;4.00;42.08;92703.66;5022150;28;20055;-78
2022/02/01 09:33:01;;;;;;;51.28;27.38;;;;;;;3.21;43.31;92695.38;5019338;28;20049;-77
2022/02/01 09:35:27;;;;;;;64.05;28.15;;;;;;;2.60;43.75;92640.63;5021811;28;20045;-77
2022/02/01 09:37:52;;;;;;;44.63;22.08;;;;;;;2.34;44.90;92702.53;5026130;28;20041;-77
2022/02/01 09:40:18;;;;;;;44.97;24.50;;;;;;;2.66;45.14;92699.84;5022206;28;20037;-78
2022/02/01 09:42:43;;;;;;;42.83;21.50;;;;;;;2.93;44.29;92683.34;5024530;28;20030;-77
2022/02/01 09:45:10;;;;;;;51.17;26.33;;;;;;;2.51;45.40;92703.53;5021979;28;20041;-78
2022/02/01 09:47:39;;;;;;;44.53;21.63;;;;;;;2.72;45.93;92698.72;5027090;28;20045;-78
2022/02/01 09:50:06;;;;;;;37.80;20.40;;;;;;;2.77;44.98;92690.72;5016698;28;20044;-77
2022/02/01 09:52:32;;;;;;;43.92;20.85;;;;;;;2.71;44.99;92680.59;5010885;28;20489;-78
2022/02/01 09:55:02;;;;;;;40.80;21.65;;;;;;;2.57;44.90;92706.06;5023790;28;20592;-79
2022/02/01 09:57:27;;;;;;;38.58;21.20;;;;;;;2.60;45.26;92689.75;5022196;28;20493;-78
2022/02/01 09:59:57;;;;;;;46.65;23.70;;;;;;;2.34;45.36;92707.78;5012197;28;20129;-78
2022/02/01 10:02:36;;;;;;;52.83;23.02;;;;;;;2.61;45.38;92707.03;5028122;28;20114;-78
2022/02/01 10:05:10;;;;;;;39.33;21.40;;;;;;;2.63;44.81;92710.16;5032845;28;20061;-79
2022/02/01 10:07:47;;;;;;;41.40;22.80;;;;;;;2.50;44.91;92680.97;5020624;28;20579;-79
2022/02/01 10:10:12;;;;;;;44.33;23.92;;;;;;;2.51;45.16;92708.00;5013955;28;20033;-79
2022/02/01 10:12:39;;;;;;;51.60;24.08;;;;;;;2.22;45.54;92700.38;5025244;28;20436;-78
2022/02/01 10:15:15;;;;;;;50.63;23.25;;;;;;;2.23;45.62;92701.94;5020740;28;20030;-78
2022/02/01 10:17:56;;;;;;;51.42;23.48;;;;;;;2.35;45.56;92694.38;5017592;28;20088;-78
2022/02/01 10:20:36;;;;;;;52.60;24.30;;;;;;;2.42;45.32;92692.16;5027688;28;20044;-78
2022/02/01 10:23:19;;;;;;;49.95;25.98;;;;;;;2.23;45.66;92670.44;5020907;28;20025;-78
2022/02/01 10:26:06;;;;;;;53.95;21.83;;;;;;;2.49;45.05;92697.81;5020773;28;20052;-79
2022/02/01 10:29:19;;;;;;;44.85;22.45;;;;;;;2.17;45.96;92684.72;5016709;28;20044;-78
2022/02/01 10:31:50;;;;;;;40.95;20.30;;;;;;;2.23;46.10;92670.44;5026662;28;20465;-78
2022/02/01 10:37:01;;;;;;;33.88;19.55;;;;;;;2.53;45.37;92685.66;5020069;28;20495;-78
2022/02/01 10:39:32;;;;;;;39.60;18.98;;;;;;;2.24;45.57;92690.38;5013207;28;20040;-77
2022/02/01 10:41:59;;;;;;;34.65;18.30;;;;;;;2.21;45.61;92688.31;5023875;28;20033;-78
2022/02/01 10:44:50;;;;;;;40.13;15.93;;;;;;;2.00;46.36;92682.66;5012203;28;20037;-78
2022/02/01 10:47:37;;;;;;;22.60;10.45;;;;;;;2.35;43.75;92689.13;5018539;28;20540;-79
2022/02/01 10:50:08;;;;;;;9.27;6.45;;;;;;;1.93;42.23;92695.31;5018411;28;20541;-78
2022/02/01 10:52:46;;;;;;;25.10;12.82;;;;;;;1.50;44.79;92644.84;5025089;28;20120;-79
2022/02/01 10:55:12;;;;;;;17.55;8.20;;;;;;;1.94;44.31;92703.97;5021784;28;20018;-79
2022/02/01 10:57:38;;;;;;;14.77;4.70;;;;;;;1.59;44.01;92703.41;5019588;28;20111;-78
2022/02/01 11:00:08;;;;;;;10.10;3.53;;;;;;;1.65;44.02;92702.28;5012664;28;20075;-78
2022/02/01 11:02:38;;;;;;;4.63;2.13;;;;;;;1.87;44.37;92719.28;5025827;28;20044;-78
2022/02/01 11:05:05;;;;;;;2.42;2.20;;;;;;;1.86;44.65;92718.50;5016152;28;20041;-78
2022/02/01 11:07:30;;;;;;;4.35;2.25;;;;;;;2.08;45.00;92707.41;5025425;28;20509;-79
2022/02/01 11:09:56;;;;;;;4.75;2.83;;;;;;;2.49;45.15;92689.94;5020647;28;20017;-78
2022/02/01 11:12:33;;;;;;;7.55;3.72;;;;;;;2.57;45.27;92716.56;5016735;28;20064;-79
2022/02/01 11:14:58;;;;;;;6.32;3.20;;;;;;;2.17;45.37;92689.19;5018054;28;20033;-78
2022/02/01 11:17:25;;;;;;;5.70;3.92;;;;;;;1.88;45.35;92679.66;5018775;28;20464;-77
2022/02/01 11:19:56;;;;;;;7.72;3.53;;;;;;;2.07;45.76;92693.53;5028431;28;20037;-79
2022/02/01 11:22:31;;;;;;;5.95;2.80;;;;;;;2.46;46.21;92711.50;5014376;28;20272;-78
2022/02/01 11:25:18;;;;;;;3.20;2.33;;;;;;;2.58;45.73;92705.78;5024241;28;20075;-79
2022/02/01 11:30:45;;;;;;;7.93;2.83;;;;;;;2.85;44.49;92681.38;5020586;28;20104;-78
2022/02/01 11:33:13;;;;;;;4.85;2.20;;;;;;;2.67;44.71;92669.91;5025604;28;20037;-78
2022/02/01 11:35:40;;;;;;;4.75;2.83;;;;;;;2.85;44.85;92691.88;5021335;28;20068;-78
2022/02/01 11:38:15;;;;;;;3.53;2.47;;;;;;;2.72;45.14;92682.16;5025521;28;20044;-77
2022/02/01 11:40:46;;;;;;;;;;;;;;;2.85;45.50;92710.28;5017017;28;20041;-78
2022/02/01 11:43:13;;;;;;;4.97;2.20;;;;;;;2.86;45.05;92667.19;5019701;28;19962;-78
2022/02/01 11:45:42;;;;;;;6.88;3.20;;;;;;;3.11;44.69;92705.31;5017098;28;20052;-78
2022/02/01 11:48:17;;;;;;;4.60;2.53;;;;;;;2.91;45.27;92695.97;5022755;28;20133;-78
2022/02/01 11:50:52;;;;;;;6.57;2.65;;;;;;;2.79;44.93;92664.19;5010270;28;20037;-78
2022/02/01 11:53:25;;;;;;;;;;;;;;;2.45;45.55;92698.69;5024736;28;20041;-77
2022/02/01 11:55:53;;;;;;;8.45;3.22;;;;;;;2.40;45.59;92694.28;5022369;28;19928;-79
2022/02/01 11:58:30;;;;;;;4.43;3.20;;;;;;;2.03;45.93;92704.88;5019648;28;20082;-79
2022/02/01 12:00:57;;;;;;;7.30;2.60;;;;;;;2.05;46.59;92700.13;5027164;28;20082;-78
2022/02/01 12:03:31;;;;;;;5.13;2.80;;;;;;;1.82;46.60;92703.59;5013082;28;20041;-78
2022/02/01 12:06:04;;;;;;;5.30;3.23;;;;;;;1.67;47.60;92730.81;5019854;28;20040;-78
2022/02/01 12:08:34;;;;;;;5.43;3.67;;;;;;;1.48;48.00;92709.06;5017382;28;20833;-78
2022/02/01 12:11:02;;;;;;;5.55;2.88;;;;;;;1.18;48.75;92718.13;5022459;28;20416;-78
2022/02/01 12:13:31;;;;;;;6.70;3.00;;;;;;;1.18;48.79;92682.22;5016433;28;20465;-78
2022/02/01 12:15:59;;;;;;;7.45;3.38;;;;;;;1.27;48.68;92690.25;5018479;28;20428;-78
2022/02/01 12:18:28;;;;;;;4.25;3.65;;;;;;;1.68;48.87;92717.44;5029250;28;20039;-78
2022/02/01 12:21:10;;;;;;;5.82;3.70;;;;;;;2.04;48.45;92722.97;5037943;28;20048;-78
2022/02/01 12:23:36;;;;;;;6.75;3.63;;;;;;;1.63;48.14;92690.50;5024088;28;20318;-78
2022/02/01 12:26:01;;;;;;;6.85;3.53;;;;;;;1.48;48.01;92706.44;5025771;28;20070;-78
2022/02/01 12:28:29;;;;;;;5.90;3.28;;;;;;;1.58;48.09;92743.00;5032365;28;20370;-78
2022/02/01 12:31:07;;;;;;;5.63;3.17;;;;;;;1.72;47.74;92717.63;5022042;28;20028;-78
2022/02/01 12:33:32;;;;;;;6.70;2.75;;;;;;;1.87;47.31;92704.31;5033071;28;20071;-78
2022/02/01 12:35:58;;;;;;;5.00;2.90;;;;;;;1.99;47.20;92717.78;5012156;28;20127;-78
2022/02/01 12:38:29;;;;;;;5.18;3.63;;;;;;;2.40;46.99;92723.13;5032393;28;20065;-79
2022/02/01 12:41:12;;;;;;;7.55;3.72;;;;;;;3.05;45.82;92745.88;5017573;28;20116;-78
2022/02/01 12:43:56;;;;;;;3.53;2.20;;;;;;;3.32;45.20;92741.41;5024535;28;20033;-79
2022/02/01 12:46:40;;;;;;;3.45;2.03;;;;;;;3.42;45.18;92763.31;5024395;28;20339;-78
2022/02/01 12:49:08;;;;;;;5.25;3.00;;;;;;;3.71;44.20;92761.13;5025979;28;20029;-78
2022/02/01 12:51:49;;;;;;;5.07;2.72;;;;;;;3.63;44.33;92772.31;5032435;28;20670;-79